createdAt,value
2023-04-15T00:00:57.527Z,210.63
2023-04-15T00:03:24.682Z,218.27
2023-04-15T00:05:51.994Z,203.57
2023-04-15T00:08:18.575Z,160.82
2023-04-15T00:10:46.672Z,57.38
2023-04-15T00:13:13.476Z,45.28
2023-04-15T00:15:40.452Z,68.93
2023-04-15T00:18:08.208Z,232.90
2023-04-15T00:20:35.352Z,247.55
2023-04-15T00:23:02.619Z,262.05
2023-04-15T00:25:29.390Z,147.63
2023-04-15T00:27:55.899Z,11.95
2023-04-15T00:30:23.863Z,13.38
2023-04-15T00:32:50.574Z,58.08
2023-04-15T00:35:22.263Z,35.45
2023-04-15T00:37:50.375Z,2.90
2023-04-15T00:40:18.900Z,2.70
2023-04-15T00:42:45.711Z,3.20
2023-04-15T00:45:12.915Z,3.17
2023-04-15T00:47:42.140Z,2.90
2023-04-15T00:50:09.460Z,2.33
2023-04-15T00:52:36.222Z,3.33
2023-04-15T00:55:04.619Z,3.10
2023-04-15T00:57:31.708Z,2.90
2023-04-15T00:59:58.373Z,2.55
2023-04-15T01:02:25.045Z,2.97
2023-04-15T01:04:52.053Z,2.88
2023-04-15T01:07:18.840Z,2.65
2023-04-15T01:09:45.716Z,3.00
2023-04-15T01:12:13.158Z,2.67
2023-04-15T01:14:39.818Z,3.90
2023-04-15T01:17:06.314Z,3.08
2023-04-15T01:19:32.956Z,3.30
2023-04-15T01:21:59.465Z,2.88
2023-04-15T01:24:27.154Z,3.15
2023-04-15T01:26:54.360Z,3.00
2023-04-15T01:29:21.385Z,3.20
2023-04-15T01:31:56.088Z,3.20
2023-04-15T01:34:25.884Z,2.72
2023-04-15T01:36:53.853Z,2.38
2023-04-15T01:39:21.635Z,2.03
2023-04-15T01:41:48.606Z,3.75
2023-04-15T01:44:16.374Z,2.55
2023-04-15T01:46:43.080Z,3.08
2023-04-15T01:49:09.603Z,3.28
2023-04-15T01:51:36.101Z,2.72
2023-04-15T01:54:02.665Z,2.92
2023-04-15T01:56:29.900Z,3.42
2023-04-15T01:58:56.956Z,2.58
2023-04-15T02:01:23.732Z,3.10
2023-04-15T02:03:50.777Z,3.00
2023-04-15T02:06:21.030Z,2.20
2023-04-15T02:08:48.000Z,2.83
2023-04-15T02:11:15.431Z,2.42
2023-04-15T02:13:42.281Z,3.20
2023-04-15T02:16:21.380Z,2.75
2023-04-15T02:18:48.147Z,3.75
2023-04-15T02:21:15.201Z,2.50
2023-04-15T02:23:41.803Z,3.20
2023-04-15T02:26:08.344Z,2.78
2023-04-15T02:28:35.001Z,2.40
2023-04-15T02:31:06.443Z,2.92
2023-04-15T02:33:33.174Z,2.53
2023-04-15T02:36:00.554Z,2.63
2023-04-15T02:38:27.875Z,3.08
2023-04-15T02:40:54.610Z,3.90
2023-04-15T02:43:21.122Z,3.13
2023-04-15T02:45:48.171Z,3.00
2023-04-15T02:48:14.856Z,2.45
2023-04-15T02:50:41.373Z,2.85
2023-04-15T02:53:10.087Z,3.10
2023-04-15T02:55:36.822Z,2.75
2023-04-15T02:58:03.384Z,2.33
2023-04-15T03:00:30.140Z,2.58
2023-04-15T03:03:03.427Z,2.45
2023-04-15T03:05:30.581Z,2.97
2023-04-15T03:07:57.336Z,2.55
2023-04-15T03:10:23.928Z,3.10
2023-04-15T03:12:50.727Z,4.50
2023-04-15T03:15:19.358Z,2.88
2023-04-15T03:17:49.794Z,3.50
2023-04-15T03:20:17.097Z,2.67
2023-04-15T03:22:43.742Z,3.83
2023-04-15T03:25:10.654Z,2.30
2023-04-15T03:27:38.391Z,2.72
2023-04-15T03:30:06.650Z,2.65
2023-04-15T03:32:35.701Z,3.22
2023-04-15T03:35:02.386Z,3.15
2023-04-15T03:37:29.005Z,3.00
2023-04-15T03:39:56.524Z,8.80
2023-04-15T03:42:23.249Z,12.65
2023-04-15T03:44:49.834Z,5.65
2023-04-15T03:47:16.382Z,3.47
2023-04-15T03:49:42.900Z,3.65
2023-04-15T03:52:09.423Z,3.80
2023-04-15T03:54:36.110Z,2.67
2023-04-15T03:57:02.746Z,2.72
2023-04-15T03:59:29.364Z,2.58
2023-04-15T04:01:56.068Z,3.42
2023-04-15T04:04:22.756Z,3.20
2023-04-15T04:06:49.351Z,3.95
2023-04-15T04:09:16.230Z,3.03
2023-04-15T04:11:42.777Z,3.50
2023-04-15T04:14:09.319Z,2.83
2023-04-15T04:16:36.273Z,2.10
2023-04-15T04:19:03.210Z,3.15
2023-04-15T04:21:30.767Z,3.33
2023-04-15T04:23:57.343Z,3.15
2023-04-15T04:26:23.877Z,2.83
2023-04-15T04:28:50.698Z,3.17
2023-04-15T04:31:17.193Z,2.40
2023-04-15T04:33:43.721Z,3.58
2023-04-15T04:36:10.470Z,3.05
2023-04-15T04:38:36.987Z,2.67
2023-04-15T04:41:03.507Z,2.53
2023-04-15T04:43:30.023Z,2.80
2023-04-15T04:45:56.569Z,4.57
2023-04-15T04:48:23.106Z,3.28
2023-04-15T04:50:49.743Z,5.43
2023-04-15T04:53:16.298Z,4.35
2023-04-15T04:55:42.818Z,27.05
2023-04-15T04:58:09.349Z,30.95
2023-04-15T05:00:37.388Z,37.75
2023-04-15T05:03:04.284Z,38.58
2023-04-15T05:05:31.441Z,39.55
2023-04-15T05:07:57.961Z,41.15
2023-04-15T05:10:24.447Z,47.38
2023-04-15T05:12:51.940Z,52.42
2023-04-15T05:15:18.479Z,28.92
2023-04-15T05:17:45.139Z,37.13
2023-04-15T05:20:12.394Z,34.50
2023-04-15T05:22:38.894Z,38.20
2023-04-15T05:25:05.773Z,35.50
2023-04-15T05:27:32.282Z,30.40
2023-04-15T05:29:58.872Z,30.77
2023-04-15T05:32:25.614Z,25.80
2023-04-15T05:34:52.246Z,19.30
2023-04-15T05:37:20.888Z,21.02
2023-04-15T05:39:48.351Z,20.48
2023-04-15T05:42:14.984Z,14.02
2023-04-15T05:44:41.917Z,9.38
2023-04-15T05:47:09.684Z,5.93
2023-04-15T05:49:36.469Z,18.23
2023-04-15T05:52:03.333Z,12.07
2023-04-15T05:54:29.897Z,10.25
2023-04-15T05:56:57.627Z,13.23
2023-04-15T05:59:24.169Z,12.85
2023-04-15T06:01:52.220Z,15.32
2023-04-15T06:04:18.922Z,22.08
2023-04-15T06:06:45.585Z,42.42
2023-04-15T06:09:12.114Z,77.40
2023-04-15T06:11:38.632Z,84.63
2023-04-15T06:14:05.244Z,69.28
2023-04-15T06:16:32.297Z,127.13
2023-04-15T06:18:58.933Z,124.03
2023-04-15T06:21:25.704Z,118.82
2023-04-15T06:23:52.293Z,80.60
2023-04-15T06:26:18.803Z,118.25
2023-04-15T06:28:45.359Z,94.72
2023-04-15T06:31:11.940Z,91.97
2023-04-15T06:33:39.607Z,74.72
2023-04-15T06:36:06.311Z,145.82
2023-04-15T06:38:32.811Z,51.85
2023-04-15T06:40:59.433Z,79.85
2023-04-15T06:43:26.476Z,20.40
2023-04-15T06:45:54.929Z,15.25
2023-04-15T06:48:22.613Z,14.93
2023-04-15T06:50:49.502Z,9.75
2023-04-15T06:53:16.205Z,8.70
2023-04-15T06:55:42.759Z,7.25
2023-04-15T06:58:09.311Z,38.20
2023-04-15T07:00:38.895Z,71.88
2023-04-15T07:03:05.638Z,34.60
2023-04-15T07:05:32.478Z,27.63
2023-04-15T07:07:59.035Z,98.82
2023-04-15T07:10:31.184Z,94.97
2023-04-15T07:12:57.730Z,153.73
2023-04-15T07:15:24.229Z,91.03
2023-04-15T07:17:51.303Z,163.80
2023-04-15T07:20:17.939Z,93.05
2023-04-15T07:22:44.466Z,259.52
2023-04-15T07:25:11.135Z,271.55
2023-04-15T07:27:37.713Z,155.23
2023-04-15T07:30:04.569Z,136.50
2023-04-15T07:32:31.202Z,125.82
2023-04-15T07:34:58.498Z,62.85
2023-04-15T07:37:25.364Z,66.00
2023-04-15T07:39:54.442Z,129.60
2023-04-15T07:42:22.048Z,89.57
2023-04-15T07:44:48.689Z,238.60
2023-04-15T07:47:15.196Z,144.98
2023-04-15T07:49:43.408Z,195.73
2023-04-15T07:52:09.997Z,196.18
2023-04-15T07:54:36.529Z,178.10
2023-04-15T07:57:05.666Z,237.80
2023-04-15T07:59:33.492Z,145.13
2023-04-15T08:02:00.524Z,162.48
2023-04-15T08:04:27.511Z,266.52
2023-04-15T08:06:54.788Z,137.90
2023-04-15T08:09:21.572Z,112.55
2023-04-15T08:11:51.281Z,89.75
2023-04-15T08:14:17.895Z,72.95
2023-04-15T08:16:44.425Z,69.22
2023-04-15T08:19:11.482Z,74.70
2023-04-15T08:21:38.745Z,3.60
2023-04-15T08:24:06.176Z,39.08
2023-04-15T08:26:32.786Z,83.40
2023-04-15T08:28:59.426Z,22.77
2023-04-15T08:31:27.354Z,71.15
2023-04-15T08:36:21.530Z,84.35
2023-04-15T08:38:48.109Z,126.18
2023-04-15T08:41:23.224Z,107.47
2023-04-15T08:44:07.806Z,139.68
2023-04-15T08:46:38.450Z,114.13
2023-04-15T08:49:05.462Z,58.15
2023-04-15T08:51:32.736Z,10.40
2023-04-15T08:53:59.824Z,9.88
2023-04-15T08:56:27.032Z,2.30
2023-04-15T08:58:53.993Z,2.78
2023-04-15T09:01:21.523Z,2.35
2023-04-15T09:03:49.384Z,3.13
2023-04-15T09:08:45.728Z,2.90
2023-04-15T09:11:12.332Z,2.92
2023-04-15T09:13:39.166Z,3.05
2023-04-15T09:16:06.899Z,2.75
2023-04-15T09:18:35.597Z,2.97
2023-04-15T09:21:11.345Z,2.97
2023-04-15T09:26:37.902Z,3.22
2023-04-15T09:29:13.826Z,3.50
2023-04-15T09:31:41.199Z,3.10
2023-04-15T09:34:07.885Z,3.00
2023-04-15T09:36:54.996Z,2.75
2023-04-15T09:42:04.625Z,3.10
2023-04-15T09:44:31.376Z,2.92
2023-04-15T09:46:57.844Z,3.22
2023-04-15T09:49:24.407Z,2.72
2023-04-15T09:52:03.927Z,2.75
2023-04-15T09:54:36.607Z,2.80
2023-04-15T09:57:13.200Z,2.80
2023-04-15T09:59:40.037Z,2.70
2023-04-15T10:02:07.513Z,2.83
2023-04-15T10:04:40.795Z,3.72
2023-04-15T10:07:09.453Z,29.73
2023-04-15T10:09:36.690Z,85.10
2023-04-15T10:12:05.344Z,22.83
2023-04-15T10:14:38.380Z,24.63
2023-04-15T10:17:06.021Z,55.38
2023-04-15T10:19:34.329Z,36.22
2023-04-15T10:22:00.880Z,35.67
2023-04-15T10:24:27.880Z,109.72
2023-04-15T10:26:54.570Z,112.15
2023-04-15T10:29:21.101Z,102.90
2023-04-15T10:31:48.419Z,170.23
2023-04-15T10:34:15.983Z,139.20
2023-04-15T10:36:42.555Z,157.48
2023-04-15T10:39:34.250Z,177.25
2023-04-15T10:42:18.215Z,176.70
2023-04-15T10:44:49.138Z,158.57
2023-04-15T10:47:21.569Z,178.05
2023-04-15T10:49:59.356Z,246.48
2023-04-15T10:52:28.079Z,168.13
2023-04-15T10:55:19.343Z,184.55
2023-04-15T10:57:46.007Z,170.73
2023-04-15T11:00:16.440Z,138.27
2023-04-15T11:02:54.793Z,220.05
2023-04-15T11:05:42.698Z,278.10
2023-04-15T11:08:13.653Z,207.85
2023-04-15T11:10:40.274Z,221.15
2023-04-15T11:13:09.749Z,201.10
2023-04-15T11:15:44.855Z,201.73
2023-04-15T11:18:16.334Z,192.45
2023-04-15T11:20:45.252Z,182.60
2023-04-15T11:23:15.259Z,152.68
2023-04-15T11:25:43.001Z,148.15
2023-04-15T11:28:11.953Z,86.60
2023-04-15T11:30:39.918Z,78.20
2023-04-15T11:33:08.641Z,115.55
2023-04-15T11:35:35.951Z,90.03
2023-04-15T11:38:06.688Z,87.65
2023-04-15T11:40:33.448Z,97.30
2023-04-15T11:43:22.878Z,93.72
2023-04-15T11:45:53.436Z,129.30
2023-04-15T11:48:21.719Z,131.82
2023-04-15T11:50:57.135Z,110.00
2023-04-15T11:53:24.600Z,121.97
2023-04-15T11:55:53.060Z,134.38
2023-04-15T11:58:21.356Z,125.57
2023-04-15T12:00:56.429Z,147.77
2023-04-15T12:03:27.340Z,249.48
2023-04-15T12:06:25.587Z,264.40
2023-04-15T12:09:07.066Z,171.02
2023-04-15T12:11:39.215Z,190.82
2023-04-15T12:14:25.525Z,188.80
2023-04-15T12:16:54.397Z,219.15
2023-04-15T12:19:26.721Z,205.43
2023-04-15T12:22:00.499Z,176.57
2023-04-15T12:24:27.582Z,153.52
2023-04-15T12:26:57.331Z,231.05
2023-04-15T12:29:28.674Z,255.63
2023-04-15T12:31:57.203Z,189.30
2023-04-15T12:34:29.561Z,184.63
2023-04-15T12:36:56.833Z,168.73
2023-04-15T12:39:24.685Z,162.63
2023-04-15T12:41:52.393Z,158.48
2023-04-15T12:44:19.028Z,148.65
2023-04-15T12:46:46.199Z,135.80
2023-04-15T12:49:14.721Z,144.65
2023-04-15T12:51:41.553Z,150.40
2023-04-15T12:54:08.163Z,154.35
2023-04-15T12:56:34.719Z,154.52
2023-04-15T12:59:02.254Z,148.50
2023-04-15T13:01:28.815Z,152.40
2023-04-15T13:03:56.023Z,183.77
2023-04-15T13:06:24.040Z,160.85
2023-04-15T13:11:26.080Z,223.50
2023-04-15T13:13:53.072Z,236.85
2023-04-15T13:16:19.954Z,247.40
2023-04-15T13:18:47.004Z,213.57
2023-04-15T13:21:13.570Z,127.50
2023-04-15T13:23:41.781Z,160.98
2023-04-15T13:26:08.368Z,212.32
2023-04-15T13:28:34.877Z,234.60
2023-04-15T13:31:01.524Z,180.13
2023-04-15T13:33:28.184Z,191.90
2023-04-15T13:35:54.742Z,215.70
2023-04-15T13:38:21.372Z,136.57
2023-04-15T13:40:48.474Z,0.80
2023-04-15T13:43:15.215Z,0.90
2023-04-15T13:45:41.798Z,89.50
2023-04-15T13:48:08.415Z,154.27
2023-04-15T13:50:34.975Z,114.35
2023-04-15T13:53:01.706Z,86.88
2023-04-15T13:55:28.806Z,151.52
2023-04-15T13:57:56.801Z,165.65
2023-04-15T14:02:49.867Z,173.18
2023-04-15T14:05:17.020Z,1.55
2023-04-15T14:07:43.546Z,0.77
2023-04-15T14:10:10.228Z,0.80
2023-04-15T14:12:36.743Z,0.68
2023-04-15T14:15:03.493Z,21.13
2023-04-15T14:17:30.072Z,39.17
2023-04-15T14:19:56.648Z,61.60
2023-04-15T14:22:23.204Z,0.95
2023-04-15T14:24:49.915Z,0.98
2023-04-15T14:27:16.670Z,1.63
2023-04-15T14:29:43.198Z,94.45
2023-04-15T14:32:12.337Z,107.43
2023-04-15T14:34:39.666Z,84.57
2023-04-15T14:37:06.510Z,0.60
2023-04-15T14:39:33.074Z,0.73
2023-04-15T14:41:59.842Z,0.90
2023-04-15T14:44:26.384Z,1.00
2023-04-15T14:46:52.932Z,82.07
2023-04-15T14:49:19.744Z,97.20
2023-04-15T14:51:46.500Z,143.82
2023-04-15T14:54:13.117Z,133.85
2023-04-15T14:56:39.684Z,106.32
2023-04-15T14:59:06.316Z,164.95
2023-04-15T15:01:33.818Z,157.85
2023-04-15T15:04:00.689Z,183.32
2023-04-15T15:06:27.818Z,212.70
2023-04-15T15:08:54.369Z,185.93
2023-04-15T15:11:21.251Z,191.35
2023-04-15T15:13:47.709Z,190.95
2023-04-15T15:16:14.716Z,187.00
2023-04-15T15:18:41.414Z,196.90
2023-04-15T15:21:07.943Z,227.27
2023-04-15T15:23:34.932Z,205.50
2023-04-15T15:26:01.474Z,203.15
2023-04-15T15:28:27.970Z,192.52
2023-04-15T15:30:54.667Z,241.55
2023-04-15T15:33:21.538Z,220.70
2023-04-15T15:35:48.185Z,100.75
2023-04-15T15:38:14.865Z,174.55
2023-04-15T15:40:41.431Z,171.68
2023-04-15T15:43:08.053Z,148.80
2023-04-15T15:45:35.783Z,110.80
2023-04-15T15:48:02.462Z,133.75
2023-04-15T15:50:29.132Z,135.23
2023-04-15T15:52:55.795Z,92.05
2023-04-15T15:55:23.366Z,85.90
2023-04-15T15:57:50.062Z,81.43
2023-04-15T16:00:16.663Z,91.40
2023-04-15T16:05:13.165Z,114.75
2023-04-15T16:07:39.726Z,106.22
2023-04-15T16:10:07.474Z,105.07
2023-04-15T16:15:01.830Z,116.10
2023-04-15T16:17:28.720Z,117.18
2023-04-15T16:20:00.655Z,114.00
2023-04-15T16:22:31.566Z,112.38
2023-04-15T16:24:58.988Z,106.97
2023-04-15T16:27:25.911Z,104.88
2023-04-15T16:29:52.538Z,105.28
2023-04-15T16:32:19.884Z,92.32
2023-04-15T16:34:46.446Z,100.45
2023-04-15T16:37:13.218Z,102.15
2023-04-15T16:39:39.760Z,104.10
2023-04-15T16:42:07.369Z,100.38
2023-04-15T16:44:34.013Z,97.25
2023-04-15T16:47:02.750Z,140.65
2023-04-15T16:49:29.885Z,174.15
2023-04-15T16:51:56.409Z,185.43
2023-04-15T16:54:22.914Z,203.20
2023-04-15T16:56:49.533Z,198.93
2023-04-15T16:59:16.556Z,192.45
2023-04-15T17:01:43.300Z,218.50
2023-04-15T17:04:09.929Z,205.38
2023-04-15T17:06:36.574Z,191.88
2023-04-15T17:09:03.608Z,133.60
2023-04-15T17:11:31.259Z,112.85
2023-04-15T17:13:57.894Z,115.45
2023-04-15T17:16:25.435Z,122.43
2023-04-15T17:18:52.151Z,185.75
2023-04-15T17:21:18.634Z,192.50
2023-04-15T17:23:45.429Z,208.98
2023-04-15T17:26:11.955Z,200.57
2023-04-15T17:28:38.596Z,255.85
2023-04-15T17:31:05.326Z,213.27
2023-04-15T17:34:00.162Z,165.02
2023-04-15T17:36:18.508Z,215.50
2023-04-15T17:38:45.507Z,234.05
2023-04-15T17:41:12.101Z,234.30
2023-04-15T17:43:38.663Z,202.15
2023-04-15T17:46:07.140Z,245.70
2023-04-15T17:48:34.366Z,272.38
2023-04-15T17:51:01.340Z,303.38
2023-04-15T17:53:27.884Z,299.67
2023-04-15T17:55:54.534Z,263.30
2023-04-15T17:58:21.349Z,258.45
2023-04-15T18:00:48.284Z,72.82
2023-04-15T18:03:15.333Z,79.88
2023-04-15T18:05:42.801Z,0.93
2023-04-15T18:08:09.674Z,0.90
2023-04-15T18:10:36.738Z,39.45
2023-04-15T18:13:03.453Z,39.40
2023-04-15T18:15:33.235Z,1.60
2023-04-15T18:18:00.286Z,1.55
2023-04-15T18:20:26.976Z,1.02
2023-04-15T18:22:53.705Z,1.00
2023-04-15T18:25:20.215Z,0.90
2023-04-15T18:27:46.954Z,1.15
2023-04-15T18:30:13.480Z,1.00
2023-04-15T18:32:41.149Z,1.42
2023-04-15T18:35:08.334Z,2.17
2023-04-15T18:37:35.411Z,24.48
2023-04-15T18:40:01.931Z,1.20
2023-04-15T18:42:28.453Z,1.13
2023-04-15T18:44:55.304Z,69.95
2023-04-15T18:47:22.034Z,1.40
2023-04-15T18:49:48.590Z,1.58
2023-04-15T18:52:15.189Z,1.85
2023-04-15T18:54:41.728Z,2.20
2023-04-15T18:57:08.260Z,2.20
2023-04-15T18:59:35.253Z,2.47
2023-04-15T19:02:06.209Z,2.08
2023-04-15T19:04:33.097Z,1.98
2023-04-15T19:06:59.685Z,2.35
2023-04-15T19:09:26.782Z,2.35
2023-04-15T19:11:53.506Z,2.60
2023-04-15T19:14:20.043Z,2.70
2023-04-15T19:16:46.555Z,2.72
2023-04-15T19:19:14.706Z,2.38
2023-04-15T19:24:07.898Z,3.80
2023-04-15T19:26:34.483Z,3.80
2023-04-15T19:29:01.434Z,3.90
2023-04-15T19:31:27.922Z,3.70
2023-04-15T19:33:54.398Z,4.15
2023-04-15T19:36:21.312Z,4.97
2023-04-15T19:38:47.782Z,4.40
2023-04-15T19:41:14.523Z,4.63
2023-04-15T19:43:41.053Z,4.45
2023-04-15T19:46:07.916Z,4.25
2023-04-15T19:48:34.489Z,5.68
2023-04-15T19:51:01.131Z,4.93
2023-04-15T19:53:27.760Z,4.97
2023-04-15T19:55:54.238Z,4.90
2023-04-15T19:58:21.026Z,5.10
2023-04-15T20:00:47.543Z,6.40
2023-04-15T20:03:14.221Z,5.53
2023-04-15T20:05:40.951Z,5.88
2023-04-15T20:08:07.462Z,5.72
2023-04-15T20:10:35.267Z,6.00
2023-04-15T20:13:01.729Z,5.47
2023-04-15T20:15:28.249Z,6.97
2023-04-15T20:17:54.858Z,6.45
2023-04-15T20:20:22.233Z,7.07
2023-04-15T20:22:48.883Z,7.00
2023-04-15T20:25:15.707Z,8.18
2023-04-15T20:27:42.221Z,7.15
2023-04-15T20:30:09.158Z,7.63
2023-04-15T20:32:36.379Z,7.43
2023-04-15T20:35:04.386Z,8.85
2023-04-15T20:37:32.988Z,7.65
2023-04-15T20:40:00.296Z,8.63
2023-04-15T20:42:26.903Z,8.27
2023-04-15T20:44:53.412Z,8.45
2023-04-15T20:47:20.262Z,9.02
2023-04-15T20:49:47.445Z,8.07
2023-04-15T20:52:14.100Z,8.18
2023-04-15T20:54:40.744Z,9.07
2023-04-15T20:57:07.264Z,7.97
2023-04-15T20:59:34.812Z,8.02
2023-04-15T21:02:02.296Z,9.88
2023-04-15T21:04:28.912Z,8.10
2023-04-15T21:06:55.454Z,9.57
2023-04-15T21:09:22.024Z,16.77
2023-04-15T21:14:18.622Z,24.38
2023-04-15T21:16:45.198Z,99.13
2023-04-15T21:19:11.846Z,48.72
2023-04-15T21:21:38.477Z,30.15
2023-04-15T21:24:06.937Z,50.42
2023-04-15T21:26:33.982Z,12.73
2023-04-15T21:29:00.744Z,8.15
2023-04-15T21:31:27.262Z,204.68
2023-04-15T21:33:53.857Z,347.13
2023-04-15T21:36:20.459Z,356.67
2023-04-15T21:38:47.106Z,348.17
2023-04-15T21:41:13.602Z,307.50
2023-04-15T21:43:40.178Z,290.92
2023-04-15T21:46:24.185Z,105.43
2023-04-15T21:48:55.255Z,208.35
2023-04-15T21:51:22.140Z,234.27
2023-04-15T21:53:48.788Z,207.77
2023-04-15T21:56:15.472Z,196.48
2023-04-15T21:58:42.476Z,191.00
2023-04-15T22:01:08.980Z,267.92
2023-04-15T22:03:35.735Z,241.68
2023-04-15T22:06:03.756Z,217.60
2023-04-15T22:08:38.241Z,243.02
2023-04-15T22:11:19.578Z,150.60
2023-04-15T22:13:46.742Z,107.35
2023-04-15T22:16:13.192Z,188.93
2023-04-15T22:18:39.751Z,119.65
2023-04-15T22:21:06.319Z,141.20
2023-04-15T22:23:33.112Z,279.00
2023-04-15T22:25:59.826Z,260.83
2023-04-15T22:28:26.308Z,256.77
2023-04-15T22:30:54.524Z,202.20
2023-04-15T22:33:21.154Z,210.20
2023-04-15T22:35:47.682Z,256.88
2023-04-15T22:38:14.153Z,171.52
2023-04-15T22:40:40.663Z,148.27
2023-04-15T22:43:07.163Z,108.85
2023-04-15T22:45:34.155Z,116.47
2023-04-15T22:48:00.783Z,112.38
2023-04-15T22:50:27.471Z,117.68
2023-04-15T22:52:54.000Z,120.00
2023-04-15T22:55:20.724Z,89.13
2023-04-15T22:57:47.299Z,89.90
2023-04-15T23:00:14.279Z,91.05
2023-04-15T23:02:41.122Z,72.32
2023-04-15T23:05:12.523Z,55.85
2023-04-15T23:07:39.718Z,60.65
2023-04-15T23:10:08.060Z,64.53
2023-04-15T23:12:34.733Z,99.80
2023-04-15T23:15:01.668Z,107.68
2023-04-15T23:17:28.217Z,243.73
2023-04-15T23:19:54.729Z,163.05
2023-04-15T23:22:21.196Z,133.38
2023-04-15T23:24:47.856Z,126.22
2023-04-15T23:27:14.366Z,95.88
2023-04-15T23:29:40.891Z,81.68
2023-04-15T23:32:07.410Z,85.55
2023-04-15T23:34:33.914Z,115.35
2023-04-15T23:37:00.407Z,122.25
2023-04-15T23:39:27.055Z,124.95
2023-04-15T23:41:53.635Z,147.27
2023-04-15T23:44:20.317Z,157.73
2023-04-15T23:46:46.881Z,171.88
2023-04-15T23:49:13.438Z,130.98
2023-04-15T23:51:39.960Z,126.43
2023-04-15T23:54:06.483Z,42.70
2023-04-15T23:56:33.122Z,22.45
2023-04-15T23:58:59.654Z,30.20
